Flight Track Log - Related Links

Times and Time Zones

All times are in EDT time to prevent confusion due to time zone crossing. See the N9552R flight status page for this flight to view local times or setup timezone preferences in your user account.

Time Position Orientation Groundspeed Altitude Reporting Facility
EDT Latitude Longitude Course Direction KTS MPH feet Rate Location/Type
Tue 10:56:40 AM 44.9358 -85.2169 196° South 84 97 1,900  Level Minneapolis Center
Tue 10:57:41 AM 44.9122 -85.2228 190° South 80 92 2,300 488 Climbing Minneapolis Center
Tue 10:58:43 AM 44.8861 -85.2342 197° South 83 96 2,900 488 Climbing Minneapolis Center
Tue 10:59:44 AM 44.8639 -85.2414 193° South 83 96 3,300 390 Climbing Minneapolis Center
Tue 11:00:46 AM 44.8397 -85.2475 190° South 85 98 3,700 353 Climbing Minneapolis Center
Tue 11:01:00 AM 44.8160 -85.2536 196° South  Level FlightAware Approximate
Tue 11:02:00 AM 44.8122 -85.2550 191° South 91 105 4,100  Level Minneapolis Center
Tue 11:03:01 AM 44.7789 -85.2675 195° South 98 113 4,600 439 Climbing Minneapolis Center
Tue 11:04:03 AM 44.7522 -85.2769 194° South 99 114 5,000 439 Climbing Minneapolis Center
Tue 11:05:04 AM 44.7250 -85.2864 194° South 100 115 5,500 439 Climbing Minneapolis Center
Tue 11:06:06 AM 44.6983 -85.2942 192° South 100 115 5,900 195 Climbing Minneapolis Center
Tue 11:07:07 AM 44.6639 -85.3075 195° South 102 117 5,900  Level Minneapolis Center
Tue 11:08:09 AM 44.6319 -85.3178 193° South 109 125 5,900  Level Minneapolis Center
Tue 11:09:10 AM 44.6011 -85.3294 195° South 113 130 5,900  Level Minneapolis Center
Tue 11:10:12 AM 44.5708 -85.3433 198° South 114 131 5,900  Level Minneapolis Center
Tue 11:11:13 AM 44.5389 -85.3517 191° South 115 132 5,900  Level Minneapolis Center
Tue 11:12:15 AM 44.5083 -85.3592 190° South 114 131 5,900  Level Minneapolis Center
Tue 11:13:16 AM 44.4792 -85.3669 191° South 111 128 5,900  Level Minneapolis Center
Tue 11:14:18 AM 44.4506 -85.3772 194° South 108 124 5,900  Level Minneapolis Center
Tue 11:15:19 AM 44.4200 -85.3900 197° South 111 128 5,900  Level Minneapolis Center
Tue 11:16:21 AM 44.3833 -85.4028 194° South 113 130 5,900  Level Minneapolis Center
Tue 11:17:22 AM 44.3522 -85.4117 192° South 113 130 5,900  Level Minneapolis Center
Tue 11:18:23 AM 44.3214 -85.4208 192° South 113 130 5,900  Level Minneapolis Center
Tue 11:19:25 AM 44.2894 -85.4328 195° South 116 133 5,900  Level Minneapolis Center
Tue 11:20:27 AM 44.2578 -85.4428 193° South 117 135 5,900  Level Minneapolis Center
Tue 11:21:28 AM 44.2275 -85.4508 191° South 113 130 5,900  Level Minneapolis Center
Tue 11:22:30 AM 44.2017 -85.4611 196° South 102 117 5,900 -49 Level Minneapolis Center
Tue 11:23:31 AM 44.1733 -85.4708 194° South 102 117 5,800 -49 Descending Minneapolis Center
Tue 11:24:33 AM 44.1369 -85.4836 194° South 110 127 5,800  Level Minneapolis Center
Tue 11:25:34 AM 44.1086 -85.4939 195° South 107 123 5,800  Level Minneapolis Center
Tue 11:26:36 AM 44.0794 -85.5025 192° South 107 123 5,800  Level Minneapolis Center
Tue 11:27:37 AM 44.0478 -85.5142 195° South 110 127 5,800  Level Minneapolis Center
Tue 11:28:39 AM 44.0183 -85.5231 192° South 110 127 5,800  Level Minneapolis Center
Tue 11:29:40 AM 43.9872 -85.5319 192° South 111 128 5,800  Level Minneapolis Center
Tue 11:30:42 AM 43.9547 -85.5422 193° South 118 136 5,800  Level Minneapolis Center
Tue 11:31:43 AM 43.9236 -85.5586 201° Southwest 118 136 5,800  Level Minneapolis Center
Tue 11:32:45 AM 43.8925 -85.5719 197° South 118 136 5,800  Level Minneapolis Center
Tue 11:33:46 AM 43.8603 -85.5789 189° South 118 136 5,800  Level Minneapolis Center
Tue 11:34:48 AM 43.8278 -85.5853 188° South 117 135 5,800 98 Level Minneapolis Center
Tue 11:35:49 AM 43.7894 -85.5969 192° South 118 136 6,000 98 Climbing Minneapolis Center
Tue 11:36:51 AM 43.7586 -85.6075 194° South 115 132 6,000  Level Minneapolis Center
Tue 11:37:52 AM 43.7281 -85.6172 193° South 113 130 6,000  Level Minneapolis Center
Tue 11:38:54 AM 43.6967 -85.6281 194° South 115 132 6,000  Level Minneapolis Center
Tue 11:39:55 AM 43.6653 -85.6397 195° South 116 133 6,000  Level Minneapolis Center
Tue 11:40:57 AM 43.6342 -85.6481 191° South 115 132 6,000  Level Minneapolis Center
Tue 11:41:59 AM 43.6050 -85.6567 192° South 110 127 6,000  Level Minneapolis Center
Tue 11:43:00 AM 43.5739 -85.6678 195° South 113 130 6,000  Level Minneapolis Center
Tue 11:44:02 AM 43.5369 -85.6803 194° South 114 131 6,000  Level Minneapolis Center
Tue 11:45:04 AM 43.5058 -85.6894 192° South 114 131 6,000  Level Minneapolis Center
Tue 11:46:05 AM 43.4744 -85.6992 193° South 115 132 6,000  Level Minneapolis Center
Tue 11:47:07 AM 43.4436 -85.7108 195° South 114 131 6,000  Level Minneapolis Center
Tue 11:48:09 AM 43.4144 -85.7272 202° Southwest 113 130 6,000  Level Minneapolis Center
Tue 11:49:10 AM 43.3828 -85.7353 190° South 114 131 6,000  Level Minneapolis Center
Tue 11:50:14 AM 43.3444 -85.7422 188° South 116 133 6,000  Level Chicago Center
Tue 11:51:16 AM 43.3117 -85.7514 192° South 118 136 6,000  Level Chicago Center
Tue 11:52:18 AM 43.2808 -85.7608 193° South 116 133 6,000  Level Chicago Center
Tue 11:53:20 AM 43.2494 -85.7714 194° South 115 132 6,000  Level Chicago Center
Tue 11:54:21 AM 43.2189 -85.7825 195° South 114 131 6,000  Level Chicago Center
Tue 11:55:23 AM 43.1886 -85.7928 194° South 113 130 6,000  Level Chicago Center
Tue 11:56:25 AM 43.1594 -85.8081 201° Southwest 113 130 6,000  Level Chicago Center
Tue 11:57:27 AM 43.1225 -85.8189 192° South 113 130 6,000  Level Chicago Center
Tue 11:58:29 AM 43.0908 -85.8250 188° South 115 132 6,000  Level Chicago Center
Tue 11:59:31 AM 43.0594 -85.8344 192° South 115 132 6,000  Level Chicago Center
Tue 12:00:33 PM 43.0289 -85.8431 192° South 112 129 6,000  Level Chicago Center
Tue 12:01:35 PM 42.9986 -85.8531 194° South 111 128 6,000  Level Chicago Center
Tue 12:02:36 PM 42.9675 -85.8628 193° South 113 130 6,000  Level Chicago Center
Tue 12:03:38 PM 42.9378 -85.8733 195° South 111 128 6,000  Level Chicago Center
Tue 12:04:40 PM 42.9069 -85.8828 193° South 112 129 6,000  Level Chicago Center
Tue 12:05:42 PM 42.8706 -85.8939 193° South 112 129 6,000  Level Chicago Center
Tue 12:06:44 PM 42.8411 -85.9036 194° South 110 127 6,000 -49 Level Chicago Center
Tue 12:07:45 PM 42.8119 -85.9183 200° South 111 128 5,900 -49 Descending Chicago Center
Tue 12:08:47 PM 42.7825 -85.9297 196° South 111 128 5,900  Level Chicago Center
Tue 12:09:49 PM 42.7511 -85.9194 166° South 117 135 5,900  Level Chicago Center
Tue 12:10:51 PM 42.7189 -85.9031 160° South 122 140 5,900  Level Chicago Center
Tue 12:11:53 PM 42.6867 -85.8897 163° South 122 140 5,900 -145 Level Chicago Center
Tue 12:12:55 PM 42.6469 -85.8739 164° South 124 143 5,600 -390 Descending Chicago Center
Tue 12:13:56 PM 42.6106 -85.8594 164° South 133 153 5,100 -341 Descending Chicago Center
Tue 12:14:58 PM 42.5756 -85.8431 161° South 133 153 4,900 -97 Descending Chicago Center
Tue 12:16:00 PM 42.5431 -85.8297 163° South 126 145 4,900  Level Chicago Center
Tue 12:17:02 PM 42.5103 -85.8214 169° South 121 139 4,900  Level Chicago Center
Tue 12:18:04 PM 42.4792 -85.8108 166° South 118 136 4,900  Level Chicago Center
Tue 12:19:06 PM 42.4478 -85.7939 158° South 119 137 4,900  Level Chicago Center
Tue 12:20:08 PM 42.4094 -85.7744 159° South 122 140 4,900  Level Chicago Center
Tue 12:21:10 PM 42.3764 -85.7589 161° South 125 144 4,900  Level Chicago Center
Tue 12:22:12 PM 42.3436 -85.7456 163° South 125 144 4,900  Level Chicago Center
Tue 12:23:14 PM 42.3106 -85.7319 163° South 123 142 4,900  Level Chicago Center
Tue 12:24:16 PM 42.2750 -85.7181 164° South 123 142 4,900  Level Chicago Center
Tue 12:25:17 PM 42.2419 -85.7047 163° South 123 142 4,900  Level Chicago Center
Tue 12:26:19 PM 42.2097 -85.6906 162° South 123 142 4,900  Level Chicago Center
Tue 12:27:21 PM 42.1769 -85.6792 166° South 122 140 4,900  Level Chicago Center
Tue 12:28:23 PM 42.1433 -85.6658 164° South 124 143 4,900  Level Chicago Center
Tue 12:29:25 PM 42.1047 -85.6483 161° South 123 142 4,900  Level Chicago Center
Tue 12:30:27 PM 42.0708 -85.6344 163° South 125 144 4,900  Level Chicago Center
Tue 12:31:29 PM 42.0375 -85.6197 162° South 126 145 4,900  Level Chicago Center
Tue 12:32:32 PM 42.0044 -85.6050 162° South 126 145 4,900  Level Chicago Center
Tue 12:33:34 PM 41.9692 -85.5911 164° South 130 150 4,900  Level Chicago Center
Tue 12:34:36 PM 41.9281 -85.5736 162° South 130 150 4,900  Level Chicago Center
Tue 12:35:38 PM 41.8939 -85.5603 164° South 129 148 4,900  Level Chicago Center
Tue 12:36:40 PM 41.8586 -85.5517 170° South 128 147 4,900  Level Chicago Center
Tue 12:37:42 PM 41.8242 -85.5369 162° South 130 150 4,900 -48 Level Chicago Center
Tue 12:38:44 PM 41.7897 -85.5169 157° South 133 153 4,800 -48 Descending Chicago Center
Tue 12:39:46 PM 41.7567 -85.4950 154° Southeast 133 153 4,800 48 Level Chicago Center
Tue 12:40:48 PM 41.7175 -85.4703 155° Southeast 131 151 4,900 48 Climbing Chicago Center
Tue 12:41:50 PM 41.6839 -85.4511 157° South 131 151 4,900  Level Chicago Center
Tue 12:42:52 PM 41.6508 -85.4306 155° Southeast 131 151 4,900  Level Chicago Center
Tue 12:43:54 PM 41.6189 -85.4083 153° Southeast 131 151 4,900  Level Chicago Center
Tue 12:44:56 PM 41.5828 -85.3839 153° Southeast 123 142 4,900  Level Chicago Center
Tue 12:45:58 PM 41.5514 -85.3675 159° South 123 142 4,900  Level Chicago Center
Tue 12:47:00 PM 41.5189 -85.3497 158° South 124 143 4,900  Level Chicago Center
Tue 12:48:02 PM 41.4869 -85.3308 156° South 125 144 4,900  Level Chicago Center
Tue 12:49:04 PM 41.4556 -85.3117 155° Southeast 125 144 4,900  Level Chicago Center
Tue 12:50:06 PM 41.4172 -85.2914 158° South 124 143 4,900  Level Chicago Center
Tue 12:51:08 PM 41.3844 -85.2731 157° South 125 144 4,900  Level Chicago Center
Tue 12:52:10 PM 41.3528 -85.2514 153° Southeast 127 146 4,900  Level Chicago Center
Tue 12:53:12 PM 41.3214 -85.2314 154° Southeast 127 146 4,900  Level Chicago Center
Tue 12:54:14 PM 41.2894 -85.2111 154° Southeast 127 146 4,900  Level Chicago Center
Tue 12:55:16 PM 41.2581 -85.1919 155° Southeast 126 145 4,900  Level Chicago Center
Tue 12:56:18 PM 41.2192 -85.1700 157° South 126 145 4,900  Level Chicago Center
Tue 12:57:20 PM 41.1856 -85.1539 160° South 127 146 4,900  Level Chicago Center
Tue 12:58:22 PM 41.1525 -85.1358 158° South 128 147 4,900  Level Chicago Center
Tue 12:59:24 PM 41.1208 -85.1147 153° Southeast 128 147 4,900  Level Chicago Center
Tue 01:00:26 PM 41.0900 -85.0919 151° Southeast 127 146 4,900  Level Chicago Center
Tue 01:01:28 PM 41.0578 -85.0728 156° South 127 146 4,900  Level Chicago Center
Tue 01:02:30 PM 41.0181 -85.0517 158° South 128 147 4,900  Level Chicago Center
Tue 01:03:32 PM 40.9847 -85.0319 156° South 129 148 4,900  Level Chicago Center
Tue 01:04:34 PM 40.9517 -85.0114 155° Southeast 130 150 4,900  Level Chicago Center
Tue 01:05:36 PM 40.9175 -84.9911 156° South 133 153 4,900  Level Chicago Center
Tue 01:06:38 PM 40.8839 -84.9708 155° Southeast 132 152 4,900  Level Chicago Center
Tue 01:07:40 PM 40.8497 -84.9514 157° South 133 153 4,900  Level Chicago Center
Tue 01:08:42 PM 40.8089 -84.9278 156° South 134 154 4,900  Level Chicago Center
Tue 01:09:44 PM 40.7747 -84.9075 156° South 134 154 4,900  Level Chicago Center
Tue 01:10:46 PM 40.7408 -84.8858 154° Southeast 135 155 4,900  Level Chicago Center
Tue 01:11:48 PM 40.7069 -84.8650 155° Southeast 135 155 4,900  Level Chicago Center
Tue 01:12:50 PM 40.6722 -84.8453 157° South 136 157 4,900  Level Chicago Center
Tue 01:13:52 PM 40.6369 -84.8253 157° South 136 157 4,900  Level Chicago Center
Tue 01:14:54 PM 40.5947 -84.8011 157° South 137 158 4,900  Level Chicago Center
Tue 01:15:56 PM 40.5608 -84.7808 156° South 136 157 4,900  Level Chicago Center
Tue 01:16:58 PM 40.5258 -84.7619 158° South 136 157 4,900  Level Chicago Center
Tue 01:17:52 PM 40.4917 -84.7456 160° South 140 161 4,900  Level Indianapolis Center
Tue 01:18:54 PM 40.4589 -84.7253 155° Southeast 130 150 4,900  Level Indianapolis Center
Tue 01:19:41 PM 40.4311 -84.7081 155° Southeast 134 154 4,900  Level Indianapolis Center
Tue 01:19:56 PM 40.4250 -84.7017 141° Southeast 133 153 4,900  Level Indianapolis Center
Tue 01:20:42 PM 40.3956 -84.6839 155° Southeast 136 157 4,900 98 Level Indianapolis Center
Tue 01:20:57 PM 40.3897 -84.6811 160° South 135 155 5,000 312 Climbing Indianapolis Center
Tue 01:21:59 PM 40.3572 -84.6628 157° South 132 152 5,300 194 Climbing Indianapolis Center
Tue 01:23:01 PM 40.3253 -84.6450 157° South 127 146 5,400 48 Climbing Indianapolis Center
Tue 01:24:03 PM 40.2903 -84.6203 152° Southeast 134 154 5,400 -48 Level Indianapolis Center
Tue 01:25:05 PM 40.2564 -84.5978 153° Southeast 136 157 5,300  Descending Indianapolis Center
Tue 01:26:06 PM 40.2167 -84.5706 152° Southeast 136 157 5,400 49 Climbing Indianapolis Center
Tue 01:27:08 PM 40.1828 -84.5478 153° Southeast 136 157 5,400  Level Indianapolis Center
Tue 01:28:10 PM 40.1494 -84.5253 153° Southeast 135 155 5,400 -48 Level Indianapolis Center
Tue 01:29:12 PM 40.1144 -84.5039 155° Southeast 136 157 5,300  Descending Indianapolis Center
Tue 01:30:14 PM 40.0797 -84.4817 154° Southeast 137 158 5,400  Climbing Indianapolis Center
Tue 01:31:15 PM 40.0439 -84.4611 156° South 137 158 5,300 -49 Descending Indianapolis Center
Tue 01:32:17 PM 40.0081 -84.4417 157° South 138 159 5,300  Level Indianapolis Center
Tue 01:33:19 PM 39.9747 -84.4192 153° Southeast 137 158 5,300  Level Indianapolis Center
Tue 01:34:21 PM 39.9358 -84.3917 152° Southeast 136 157 5,300 48 Level Indianapolis Center
Tue 01:35:23 PM 39.9008 -84.3694 154° Southeast 136 157 5,400 49 Climbing Indianapolis Center
Tue 01:36:24 PM 39.8647 -84.3483 156° South 138 159 5,400 -49 Level Indianapolis Center
Tue 01:37:26 PM 39.8297 -84.3272 155° Southeast 139 160 5,300 -48 Descending Indianapolis Center
Tue 01:38:28 PM 39.7956 -84.3036 152° Southeast 138 159 5,300 48 Level Indianapolis Center
Tue 01:39:30 PM 39.7600 -84.2817 155° Southeast 139 160 5,400  Climbing Indianapolis Center
Tue 01:40:31 PM 39.7214 -84.2569 154° Southeast 139 160 5,300 -98 Descending Indianapolis Center

Login

Don't have an account? Register now (free) for customized features, flight alerts, and more!